sensor_id;sensor_type;location;lat;lon;timestamp;P1;durP1;ratioP1;P2;durP2;ratioP2
56401;SDS011;42299;35.160;26.100;2023-01-04T00:00:11;33.25;;;23.92;;
56401;SDS011;42299;35.160;26.100;2023-01-04T00:01:34;33.70;;;29.15;;
56401;SDS011;42299;35.160;26.100;2023-01-04T00:02:55;33.15;;;26.27;;
56401;SDS011;42299;35.160;26.100;2023-01-04T00:04:18;32.78;;;25.02;;
56401;SDS011;42299;35.160;26.100;2023-01-04T00:05:40;28.05;;;22.05;;
56401;SDS011;42299;35.160;26.100;2023-01-04T00:07:02;32.10;;;23.95;;
56401;SDS011;42299;35.160;26.100;2023-01-04T00:08:24;30.75;;;24.05;;
56401;SDS011;42299;35.160;26.100;2023-01-04T00:09:47;31.33;;;24.48;;
56401;SDS011;42299;35.160;26.100;2023-01-04T00:11:10;28.42;;;21.40;;
56401;SDS011;42299;35.160;26.100;2023-01-04T00:12:33;25.60;;;19.83;;
56401;SDS011;42299;35.160;26.100;2023-01-04T00:13:57;27.05;;;20.23;;
56401;SDS011;42299;35.160;26.100;2023-01-04T00:15:20;27.35;;;20.40;;
56401;SDS011;42299;35.160;26.100;2023-01-04T00:16:43;24.40;;;18.00;;
56401;SDS011;42299;35.160;26.100;2023-01-04T00:18:04;25.95;;;18.55;;
56401;SDS011;42299;35.160;26.100;2023-01-04T00:19:27;25.77;;;18.80;;
56401;SDS011;42299;35.160;26.100;2023-01-04T00:20:49;26.77;;;19.27;;
56401;SDS011;42299;35.160;26.100;2023-01-04T00:22:11;25.00;;;18.25;;
56401;SDS011;42299;35.160;26.100;2023-01-04T00:23:33;24.58;;;18.02;;
56401;SDS011;42299;35.160;26.100;2023-01-04T00:24:55;21.50;;;17.17;;
56401;SDS011;42299;35.160;26.100;2023-01-04T00:26:19;23.60;;;15.38;;
56401;SDS011;42299;35.160;26.100;2023-01-04T00:27:42;21.90;;;15.45;;
56401;SDS011;42299;35.160;26.100;2023-01-04T00:29:05;21.67;;;14.98;;
56401;SDS011;42299;35.160;26.100;2023-01-04T00:30:30;20.58;;;15.43;;
56401;SDS011;42299;35.160;26.100;2023-01-04T00:31:52;20.75;;;14.38;;
56401;SDS011;42299;35.160;26.100;2023-01-04T00:33:14;20.58;;;15.07;;
56401;SDS011;42299;35.160;26.100;2023-01-04T00:34:35;21.20;;;15.23;;
56401;SDS011;42299;35.160;26.100;2023-01-04T00:36:01;24.88;;;17.92;;
56401;SDS011;42299;35.160;26.100;2023-01-04T00:37:24;30.58;;;21.85;;
56401;SDS011;42299;35.160;26.100;2023-01-04T00:38:46;36.78;;;28.48;;
56401;SDS011;42299;35.160;26.100;2023-01-04T00:40:08;32.88;;;28.42;;
56401;SDS011;42299;35.160;26.100;2023-01-04T00:41:32;30.98;;;25.40;;
56401;SDS011;42299;35.160;26.100;2023-01-04T00:42:55;25.80;;;18.67;;
56401;SDS011;42299;35.160;26.100;2023-01-04T00:44:18;23.35;;;18.35;;
56401;SDS011;42299;35.160;26.100;2023-01-04T00:45:43;23.55;;;17.05;;
56401;SDS011;42299;35.160;26.100;2023-01-04T00:47:04;25.08;;;19.10;;
56401;SDS011;42299;35.160;26.100;2023-01-04T00:48:27;28.33;;;21.20;;
56401;SDS011;42299;35.160;26.100;2023-01-04T00:49:50;32.28;;;24.90;;
56401;SDS011;42299;35.160;26.100;2023-01-04T00:51:12;32.33;;;24.63;;
56401;SDS011;42299;35.160;26.100;2023-01-04T00:52:33;29.42;;;23.25;;
56401;SDS011;42299;35.160;26.100;2023-01-04T00:53:56;26.25;;;20.55;;
56401;SDS011;42299;35.160;26.100;2023-01-04T00:55:18;31.67;;;22.25;;
56401;SDS011;42299;35.160;26.100;2023-01-04T00:56:40;36.85;;;27.08;;
56401;SDS011;42299;35.160;26.100;2023-01-04T00:58:03;31.80;;;22.90;;
56401;SDS011;42299;35.160;26.100;2023-01-04T00:59:25;28.48;;;20.75;;
56401;SDS011;42299;35.160;26.100;2023-01-04T01:00:50;30.73;;;20.13;;
56401;SDS011;42299;35.160;26.100;2023-01-04T01:02:11;30.02;;;21.98;;
56401;SDS011;42299;35.160;26.100;2023-01-04T01:03:34;29.75;;;22.63;;
56401;SDS011;42299;35.160;26.100;2023-01-04T01:04:57;27.98;;;20.35;;
56401;SDS011;42299;35.160;26.100;2023-01-04T01:06:19;28.20;;;19.55;;
56401;SDS011;42299;35.160;26.100;2023-01-04T01:07:42;27.95;;;19.70;;
56401;SDS011;42299;35.160;26.100;2023-01-04T01:09:04;28.90;;;20.00;;
56401;SDS011;42299;35.160;26.100;2023-01-04T01:10:26;28.42;;;18.98;;
56401;SDS011;42299;35.160;26.100;2023-01-04T01:11:49;29.77;;;19.23;;
56401;SDS011;42299;35.160;26.100;2023-01-04T01:13:12;31.02;;;21.25;;
56401;SDS011;42299;35.160;26.100;2023-01-04T01:14:34;30.15;;;22.23;;
56401;SDS011;42299;35.160;26.100;2023-01-04T01:16:02;26.55;;;18.70;;
56401;SDS011;42299;35.160;26.100;2023-01-04T01:17:24;25.90;;;17.45;;
56401;SDS011;42299;35.160;26.100;2023-01-04T01:18:47;27.55;;;17.77;;
56401;SDS011;42299;35.160;26.100;2023-01-04T01:20:10;27.52;;;17.95;;
56401;SDS011;42299;35.160;26.100;2023-01-04T01:21:31;25.55;;;17.67;;
56401;SDS011;42299;35.160;26.100;2023-01-04T01:22:54;28.17;;;18.75;;
56401;SDS011;42299;35.160;26.100;2023-01-04T01:24:16;27.48;;;17.63;;
56401;SDS011;42299;35.160;26.100;2023-01-04T01:25:40;28.98;;;19.08;;
56401;SDS011;42299;35.160;26.100;2023-01-04T01:27:02;29.88;;;18.67;;
56401;SDS011;42299;35.160;26.100;2023-01-04T01:28:24;31.52;;;20.55;;
56401;SDS011;42299;35.160;26.100;2023-01-04T01:29:45;30.48;;;20.17;;
56401;SDS011;42299;35.160;26.100;2023-01-04T01:31:10;33.47;;;20.92;;
56401;SDS011;42299;35.160;26.100;2023-01-04T01:32:33;39.15;;;25.90;;
56401;SDS011;42299;35.160;26.100;2023-01-04T01:33:55;59.15;;;42.08;;
56401;SDS011;42299;35.160;26.100;2023-01-04T01:35:19;52.13;;;37.28;;
56401;SDS011;42299;35.160;26.100;2023-01-04T01:36:40;110.63;;;98.32;;
56401;SDS011;42299;35.160;26.100;2023-01-04T01:38:04;103.95;;;90.53;;
56401;SDS011;42299;35.160;26.100;2023-01-04T01:39:26;108.68;;;96.32;;
56401;SDS011;42299;35.160;26.100;2023-01-04T01:40:48;101.68;;;87.97;;
56401;SDS011;42299;35.160;26.100;2023-01-04T01:42:16;54.78;;;41.33;;
56401;SDS011;42299;35.160;26.100;2023-01-04T01:43:44;49.53;;;37.60;;
56401;SDS011;42299;35.160;26.100;2023-01-04T01:45:15;42.92;;;30.25;;
56401;SDS011;42299;35.160;26.100;2023-01-04T01:46:47;30.75;;;22.42;;
56401;SDS011;42299;35.160;26.100;2023-01-04T01:48:14;47.85;;;36.70;;
56401;SDS011;42299;35.160;26.100;2023-01-04T01:49:40;33.97;;;22.45;;
56401;SDS011;42299;35.160;26.100;2023-01-04T01:51:05;41.17;;;29.08;;
56401;SDS011;42299;35.160;26.100;2023-01-04T01:52:28;34.03;;;21.90;;
56401;SDS011;42299;35.160;26.100;2023-01-04T01:53:55;28.50;;;20.35;;
56401;SDS011;42299;35.160;26.100;2023-01-04T01:55:24;34.10;;;19.77;;
56401;SDS011;42299;35.160;26.100;2023-01-04T01:56:46;31.60;;;19.85;;
56401;SDS011;42299;35.160;26.100;2023-01-04T01:58:12;31.05;;;19.83;;
56401;SDS011;42299;35.160;26.100;2023-01-04T01:59:43;31.17;;;19.40;;
56401;SDS011;42299;35.160;26.100;2023-01-04T02:01:09;39.72;;;28.05;;
56401;SDS011;42299;35.160;26.100;2023-01-04T02:02:33;34.70;;;24.55;;
56401;SDS011;42299;35.160;26.100;2023-01-04T02:03:55;30.50;;;20.23;;
56401;SDS011;42299;35.160;26.100;2023-01-04T02:05:18;27.77;;;19.80;;
56401;SDS011;42299;35.160;26.100;2023-01-04T02:06:41;28.25;;;17.05;;
56401;SDS011;42299;35.160;26.100;2023-01-04T02:08:08;28.67;;;18.17;;
56401;SDS011;42299;35.160;26.100;2023-01-04T02:09:32;30.80;;;18.42;;
56401;SDS011;42299;35.160;26.100;2023-01-04T02:10:55;28.00;;;17.38;;
56401;SDS011;42299;35.160;26.100;2023-01-04T02:12:18;28.48;;;17.50;;
56401;SDS011;42299;35.160;26.100;2023-01-04T02:13:39;28.42;;;18.02;;
56401;SDS011;42299;35.160;26.100;2023-01-04T02:15:22;25.58;;;16.85;;
56401;SDS011;42299;35.160;26.100;2023-01-04T02:16:58;26.60;;;17.27;;
56401;SDS011;42299;35.160;26.100;2023-01-04T02:18:28;29.67;;;16.83;;
56401;SDS011;42299;35.160;26.100;2023-01-04T02:21:48;31.02;;;20.52;;
56401;SDS011;42299;35.160;26.100;2023-01-04T02:23:35;39.58;;;27.85;;
56401;SDS011;42299;35.160;26.100;2023-01-04T02:25:29;61.22;;;47.30;;
56401;SDS011;42299;35.160;26.100;2023-01-04T02:27:22;50.13;;;37.67;;
56401;SDS011;42299;35.160;26.100;2023-01-04T02:29:02;47.47;;;33.42;;
56401;SDS011;42299;35.160;26.100;2023-01-04T02:32:35;43.78;;;31.45;;
56401;SDS011;42299;35.160;26.100;2023-01-04T02:34:12;48.92;;;31.27;;
56401;SDS011;42299;35.160;26.100;2023-01-04T02:35:40;41.58;;;29.10;;
56401;SDS011;42299;35.160;26.100;2023-01-04T02:37:11;35.63;;;22.65;;
56401;SDS011;42299;35.160;26.100;2023-01-04T02:38:48;27.42;;;17.48;;
56401;SDS011;42299;35.160;26.100;2023-01-04T02:40:27;32.90;;;21.13;;
56401;SDS011;42299;35.160;26.100;2023-01-04T02:42:01;30.60;;;19.08;;
56401;SDS011;42299;35.160;26.100;2023-01-04T02:43:34;28.75;;;18.23;;
56401;SDS011;42299;35.160;26.100;2023-01-04T02:45:19;31.67;;;18.13;;
56401;SDS011;42299;35.160;26.100;2023-01-04T02:46:44;30.98;;;16.63;;
56401;SDS011;42299;35.160;26.100;2023-01-04T02:48:11;28.33;;;17.38;;
56401;SDS011;42299;35.160;26.100;2023-01-04T02:49:50;29.85;;;17.52;;
56401;SDS011;42299;35.160;26.100;2023-01-04T02:51:30;28.40;;;17.33;;
56401;SDS011;42299;35.160;26.100;2023-01-04T02:52:54;31.40;;;19.95;;
56401;SDS011;42299;35.160;26.100;2023-01-04T02:54:20;29.50;;;18.45;;
56401;SDS011;42299;35.160;26.100;2023-01-04T02:55:47;31.60;;;19.77;;
56401;SDS011;42299;35.160;26.100;2023-01-04T02:57:18;29.38;;;18.90;;
56401;SDS011;42299;35.160;26.100;2023-01-04T02:58:53;29.90;;;18.70;;
56401;SDS011;42299;35.160;26.100;2023-01-04T03:00:26;26.40;;;17.35;;
56401;SDS011;42299;35.160;26.100;2023-01-04T03:02:29;27.33;;;18.63;;
56401;SDS011;42299;35.160;26.100;2023-01-04T03:04:29;26.00;;;17.58;;
56401;SDS011;42299;35.160;26.100;2023-01-04T03:06:19;28.17;;;17.15;;
56401;SDS011;42299;35.160;26.100;2023-01-04T03:07:52;29.08;;;18.35;;
56401;SDS011;42299;35.160;26.100;2023-01-04T03:09:20;31.40;;;21.98;;
56401;SDS011;42299;35.160;26.100;2023-01-04T03:10:48;29.98;;;19.63;;
56401;SDS011;42299;35.160;26.100;2023-01-04T03:12:17;30.42;;;19.85;;
56401;SDS011;42299;35.160;26.100;2023-01-04T03:13:55;35.65;;;25.60;;
56401;SDS011;42299;35.160;26.100;2023-01-04T03:15:21;36.10;;;28.17;;
56401;SDS011;42299;35.160;26.100;2023-01-04T03:16:46;44.53;;;34.05;;
56401;SDS011;42299;35.160;26.100;2023-01-04T03:18:12;50.20;;;40.58;;
56401;SDS011;42299;35.160;26.100;2023-01-04T03:19:40;59.33;;;50.28;;
56401;SDS011;42299;35.160;26.100;2023-01-04T03:21:14;60.80;;;45.83;;
56401;SDS011;42299;35.160;26.100;2023-01-04T03:22:39;54.00;;;40.03;;
56401;SDS011;42299;35.160;26.100;2023-01-04T03:24:23;56.53;;;47.10;;
56401;SDS011;42299;35.160;26.100;2023-01-04T03:26:04;48.90;;;42.60;;
56401;SDS011;42299;35.160;26.100;2023-01-04T03:27:46;49.10;;;41.90;;
56401;SDS011;42299;35.160;26.100;2023-01-04T03:29:31;56.08;;;47.20;;
56401;SDS011;42299;35.160;26.100;2023-01-04T03:31:18;54.67;;;46.70;;
56401;SDS011;42299;35.160;26.100;2023-01-04T03:33:02;45.70;;;36.58;;
56401;SDS011;42299;35.160;26.100;2023-01-04T03:34:47;46.33;;;39.35;;
56401;SDS011;42299;35.160;26.100;2023-01-04T03:36:31;39.08;;;29.45;;
56401;SDS011;42299;35.160;26.100;2023-01-04T03:38:05;35.78;;;24.50;;
56401;SDS011;42299;35.160;26.100;2023-01-04T03:39:58;38.63;;;26.90;;
56401;SDS011;42299;35.160;26.100;2023-01-04T03:41:48;36.95;;;24.70;;
56401;SDS011;42299;35.160;26.100;2023-01-04T03:43:35;35.35;;;23.83;;
56401;SDS011;42299;35.160;26.100;2023-01-04T03:45:21;35.22;;;24.00;;
56401;SDS011;42299;35.160;26.100;2023-01-04T03:47:03;32.00;;;24.13;;
56401;SDS011;42299;35.160;26.100;2023-01-04T03:48:47;30.85;;;22.08;;
56401;SDS011;42299;35.160;26.100;2023-01-04T03:50:18;30.73;;;22.65;;
56401;SDS011;42299;35.160;26.100;2023-01-04T03:51:43;30.60;;;19.73;;
56401;SDS011;42299;35.160;26.100;2023-01-04T03:53:07;29.30;;;19.20;;
56401;SDS011;42299;35.160;26.100;2023-01-04T03:55:53;31.45;;;20.58;;
56401;SDS011;42299;35.160;26.100;2023-01-04T03:57:17;33.50;;;21.27;;
56401;SDS011;42299;35.160;26.100;2023-01-04T03:58:42;39.28;;;25.85;;
56401;SDS011;42299;35.160;26.100;2023-01-04T04:00:04;44.72;;;28.77;;
56401;SDS011;42299;35.160;26.100;2023-01-04T04:01:30;63.95;;;45.42;;
56401;SDS011;42299;35.160;26.100;2023-01-04T04:02:53;63.83;;;43.03;;
56401;SDS011;42299;35.160;26.100;2023-01-04T04:04:26;62.60;;;46.63;;
56401;SDS011;42299;35.160;26.100;2023-01-04T04:06:08;70.72;;;49.92;;
56401;SDS011;42299;35.160;26.100;2023-01-04T04:07:48;77.20;;;55.15;;
56401;SDS011;42299;35.160;26.100;2023-01-04T04:09:27;89.22;;;73.15;;
56401;SDS011;42299;35.160;26.100;2023-01-04T04:10:50;86.85;;;66.30;;
56401;SDS011;42299;35.160;26.100;2023-01-04T04:12:12;87.78;;;63.92;;
56401;SDS011;42299;35.160;26.100;2023-01-04T04:13:35;79.25;;;56.88;;
56401;SDS011;42299;35.160;26.100;2023-01-04T04:14:58;102.78;;;74.97;;
56401;SDS011;42299;35.160;26.100;2023-01-04T04:16:21;85.63;;;62.25;;
56401;SDS011;42299;35.160;26.100;2023-01-04T04:17:42;84.75;;;58.00;;
56401;SDS011;42299;35.160;26.100;2023-01-04T04:19:05;84.20;;;58.03;;
56401;SDS011;42299;35.160;26.100;2023-01-04T04:20:26;68.32;;;47.60;;
56401;SDS011;42299;35.160;26.100;2023-01-04T04:21:50;63.92;;;42.85;;
56401;SDS011;42299;35.160;26.100;2023-01-04T04:23:12;57.78;;;38.83;;
56401;SDS011;42299;35.160;26.100;2023-01-04T04:24:33;67.60;;;46.80;;
56401;SDS011;42299;35.160;26.100;2023-01-04T04:25:56;54.47;;;36.05;;
56401;SDS011;42299;35.160;26.100;2023-01-04T04:27:17;49.05;;;30.65;;
56401;SDS011;42299;35.160;26.100;2023-01-04T04:28:40;51.08;;;33.58;;
56401;SDS011;42299;35.160;26.100;2023-01-04T04:30:03;48.08;;;30.10;;
56401;SDS011;42299;35.160;26.100;2023-01-04T04:31:26;64.07;;;44.67;;
56401;SDS011;42299;35.160;26.100;2023-01-04T04:32:48;53.17;;;32.42;;
56401;SDS011;42299;35.160;26.100;2023-01-04T04:34:10;51.60;;;33.33;;
56401;SDS011;42299;35.160;26.100;2023-01-04T04:35:33;48.22;;;28.95;;
56401;SDS011;42299;35.160;26.100;2023-01-04T04:36:55;49.95;;;30.73;;
56401;SDS011;42299;35.160;26.100;2023-01-04T04:38:18;42.03;;;26.63;;
56401;SDS011;42299;35.160;26.100;2023-01-04T04:39:40;47.00;;;28.40;;
56401;SDS011;42299;35.160;26.100;2023-01-04T04:41:06;43.20;;;27.17;;
56401;SDS011;42299;35.160;26.100;2023-01-04T04:42:47;47.85;;;27.95;;
56401;SDS011;42299;35.160;26.100;2023-01-04T04:44:08;45.92;;;29.40;;
56401;SDS011;42299;35.160;26.100;2023-01-04T04:45:32;48.15;;;29.75;;
56401;SDS011;42299;35.160;26.100;2023-01-04T04:46:53;55.17;;;31.10;;
56401;SDS011;42299;35.160;26.100;2023-01-04T04:48:16;63.45;;;36.45;;
56401;SDS011;42299;35.160;26.100;2023-01-04T04:49:38;56.50;;;32.63;;
56401;SDS011;42299;35.160;26.100;2023-01-04T04:51:01;63.10;;;37.67;;
56401;SDS011;42299;35.160;26.100;2023-01-04T04:52:23;77.30;;;43.53;;
56401;SDS011;42299;35.160;26.100;2023-01-04T04:53:46;48.10;;;27.63;;
56401;SDS011;42299;35.160;26.100;2023-01-04T04:55:08;57.45;;;35.45;;
56401;SDS011;42299;35.160;26.100;2023-01-04T04:56:31;52.42;;;30.25;;
56401;SDS011;42299;35.160;26.100;2023-01-04T04:57:53;78.68;;;47.47;;
56401;SDS011;42299;35.160;26.100;2023-01-04T04:59:16;75.95;;;48.08;;
56401;SDS011;42299;35.160;26.100;2023-01-04T05:00:39;105.68;;;72.50;;
56401;SDS011;42299;35.160;26.100;2023-01-04T05:02:00;90.03;;;61.45;;
56401;SDS011;42299;35.160;26.100;2023-01-04T05:03:23;79.22;;;55.83;;
56401;SDS011;42299;35.160;26.100;2023-01-04T05:04:45;81.72;;;57.35;;
56401;SDS011;42299;35.160;26.100;2023-01-04T05:06:07;89.97;;;64.13;;
56401;SDS011;42299;35.160;26.100;2023-01-04T05:07:30;81.70;;;58.45;;
56401;SDS011;42299;35.160;26.100;2023-01-04T05:08:52;89.70;;;64.28;;
56401;SDS011;42299;35.160;26.100;2023-01-04T05:10:15;86.70;;;64.07;;
56401;SDS011;42299;35.160;26.100;2023-01-04T05:11:37;83.00;;;61.60;;
56401;SDS011;42299;35.160;26.100;2023-01-04T05:13:16;89.82;;;60.55;;
56401;SDS011;42299;35.160;26.100;2023-01-04T05:14:39;106.70;;;68.22;;
56401;SDS011;42299;35.160;26.100;2023-01-04T05:16:00;132.13;;;90.00;;
56401;SDS011;42299;35.160;26.100;2023-01-04T05:17:24;79.97;;;53.47;;
56401;SDS011;42299;35.160;26.100;2023-01-04T05:18:45;74.20;;;46.33;;
56401;SDS011;42299;35.160;26.100;2023-01-04T05:20:08;72.60;;;45.50;;
56401;SDS011;42299;35.160;26.100;2023-01-04T05:22:53;66.50;;;47.53;;
56401;SDS011;42299;35.160;26.100;2023-01-04T05:24:16;52.08;;;36.92;;
56401;SDS011;42299;35.160;26.100;2023-01-04T05:25:39;55.25;;;37.70;;
56401;SDS011;42299;35.160;26.100;2023-01-04T05:27:01;58.83;;;38.67;;
56401;SDS011;42299;35.160;26.100;2023-01-04T05:28:24;59.20;;;38.17;;
56401;SDS011;42299;35.160;26.100;2023-01-04T05:29:45;60.00;;;39.63;;
56401;SDS011;42299;35.160;26.100;2023-01-04T05:31:25;58.92;;;39.75;;
56401;SDS011;42299;35.160;26.100;2023-01-04T05:32:47;48.53;;;28.38;;
56401;SDS011;42299;35.160;26.100;2023-01-04T05:34:08;45.00;;;27.80;;
56401;SDS011;42299;35.160;26.100;2023-01-04T05:35:31;46.50;;;26.85;;
56401;SDS011;42299;35.160;26.100;2023-01-04T05:36:52;39.55;;;24.50;;
56401;SDS011;42299;35.160;26.100;2023-01-04T05:38:16;43.05;;;26.60;;
56401;SDS011;42299;35.160;26.100;2023-01-04T05:39:39;41.90;;;28.63;;
56401;SDS011;42299;35.160;26.100;2023-01-04T05:41:00;42.28;;;24.95;;
56401;SDS011;42299;35.160;26.100;2023-01-04T05:42:23;43.33;;;27.02;;
56401;SDS011;42299;35.160;26.100;2023-01-04T05:43:47;42.75;;;26.20;;
56401;SDS011;42299;35.160;26.100;2023-01-04T05:45:09;51.80;;;31.42;;
56401;SDS011;42299;35.160;26.100;2023-01-04T05:46:32;65.57;;;39.25;;
56401;SDS011;42299;35.160;26.100;2023-01-04T05:47:53;51.88;;;28.55;;
56401;SDS011;42299;35.160;26.100;2023-01-04T05:49:16;41.67;;;24.88;;
56401;SDS011;42299;35.160;26.100;2023-01-04T05:50:37;40.63;;;24.40;;
56401;SDS011;42299;35.160;26.100;2023-01-04T05:52:04;93.75;;;55.15;;
56401;SDS011;42299;35.160;26.100;2023-01-04T05:53:27;88.18;;;55.65;;
56401;SDS011;42299;35.160;26.100;2023-01-04T05:54:49;70.28;;;47.05;;
56401;SDS011;42299;35.160;26.100;2023-01-04T05:56:11;58.85;;;37.13;;
56401;SDS011;42299;35.160;26.100;2023-01-04T05:57:33;56.03;;;35.67;;
56401;SDS011;42299;35.160;26.100;2023-01-04T05:58:56;95.03;;;56.42;;
56401;SDS011;42299;35.160;26.100;2023-01-04T06:00:17;100.72;;;64.43;;
56401;SDS011;42299;35.160;26.100;2023-01-04T06:01:40;129.82;;;79.60;;
56401;SDS011;42299;35.160;26.100;2023-01-04T06:03:01;124.93;;;78.40;;
56401;SDS011;42299;35.160;26.100;2023-01-04T06:04:23;136.75;;;81.93;;
56401;SDS011;42299;35.160;26.100;2023-01-04T06:05:47;74.55;;;46.40;;
56401;SDS011;42299;35.160;26.100;2023-01-04T06:07:10;80.85;;;56.22;;
56401;SDS011;42299;35.160;26.100;2023-01-04T06:08:34;63.92;;;43.58;;
56401;SDS011;42299;35.160;26.100;2023-01-04T06:09:56;70.32;;;49.20;;
56401;SDS011;42299;35.160;26.100;2023-01-04T06:11:18;67.18;;;50.63;;
56401;SDS011;42299;35.160;26.100;2023-01-04T06:12:40;72.45;;;53.20;;
56401;SDS011;42299;35.160;26.100;2023-01-04T06:14:03;71.53;;;59.88;;
56401;SDS011;42299;35.160;26.100;2023-01-04T06:15:24;90.57;;;65.72;;
56401;SDS011;42299;35.160;26.100;2023-01-04T06:16:46;73.57;;;56.20;;
56401;SDS011;42299;35.160;26.100;2023-01-04T06:18:08;88.07;;;60.03;;
56401;SDS011;42299;35.160;26.100;2023-01-04T06:19:31;77.95;;;55.33;;
56401;SDS011;42299;35.160;26.100;2023-01-04T06:20:53;76.18;;;51.25;;
56401;SDS011;42299;35.160;26.100;2023-01-04T06:22:15;62.92;;;43.45;;
56401;SDS011;42299;35.160;26.100;2023-01-04T06:23:39;58.28;;;40.17;;
56401;SDS011;42299;35.160;26.100;2023-01-04T06:25:00;37.10;;;27.40;;
56401;SDS011;42299;35.160;26.100;2023-01-04T06:26:22;30.35;;;22.70;;
56401;SDS011;42299;35.160;26.100;2023-01-04T06:27:44;32.35;;;24.13;;
56401;SDS011;42299;35.160;26.100;2023-01-04T06:29:06;32.30;;;25.70;;
56401;SDS011;42299;35.160;26.100;2023-01-04T06:30:27;30.23;;;23.30;;
56401;SDS011;42299;35.160;26.100;2023-01-04T06:31:50;27.63;;;20.92;;
56401;SDS011;42299;35.160;26.100;2023-01-04T06:33:13;33.55;;;25.30;;
56401;SDS011;42299;35.160;26.100;2023-01-04T06:34:36;23.95;;;19.50;;
56401;SDS011;42299;35.160;26.100;2023-01-04T06:35:59;21.40;;;18.02;;
56401;SDS011;42299;35.160;26.100;2023-01-04T06:37:20;24.98;;;18.05;;
56401;SDS011;42299;35.160;26.100;2023-01-04T06:38:44;21.65;;;17.80;;
56401;SDS011;42299;35.160;26.100;2023-01-04T06:40:08;23.40;;;18.98;;
56401;SDS011;42299;35.160;26.100;2023-01-04T06:41:31;23.25;;;17.55;;
56401;SDS011;42299;35.160;26.100;2023-01-04T06:42:52;19.95;;;16.42;;
56401;SDS011;42299;35.160;26.100;2023-01-04T06:44:15;21.10;;;16.95;;
56401;SDS011;42299;35.160;26.100;2023-01-04T06:45:38;20.13;;;15.90;;
56401;SDS011;42299;35.160;26.100;2023-01-04T06:47:00;20.08;;;17.05;;
56401;SDS011;42299;35.160;26.100;2023-01-04T06:48:23;18.00;;;15.50;;
56401;SDS011;42299;35.160;26.100;2023-01-04T06:49:45;17.45;;;14.60;;
56401;SDS011;42299;35.160;26.100;2023-01-04T06:51:06;19.10;;;16.35;;
56401;SDS011;42299;35.160;26.100;2023-01-04T06:52:29;19.05;;;15.73;;
56401;SDS011;42299;35.160;26.100;2023-01-04T06:53:53;21.75;;;16.55;;
56401;SDS011;42299;35.160;26.100;2023-01-04T06:55:16;19.98;;;16.55;;
56401;SDS011;42299;35.160;26.100;2023-01-04T06:56:37;18.25;;;15.40;;
56401;SDS011;42299;35.160;26.100;2023-01-04T06:58:01;15.23;;;12.93;;
56401;SDS011;42299;35.160;26.100;2023-01-04T06:59:23;15.23;;;11.18;;
56401;SDS011;42299;35.160;26.100;2023-01-04T07:00:46;15.07;;;12.40;;
56401;SDS011;42299;35.160;26.100;2023-01-04T07:02:09;13.70;;;11.98;;
56401;SDS011;42299;35.160;26.100;2023-01-04T07:03:34;13.02;;;10.15;;
56401;SDS011;42299;35.160;26.100;2023-01-04T07:04:57;14.30;;;10.35;;
56401;SDS011;42299;35.160;26.100;2023-01-04T07:06:19;14.93;;;11.00;;
56401;SDS011;42299;35.160;26.100;2023-01-04T07:07:42;13.35;;;9.88;;
56401;SDS011;42299;35.160;26.100;2023-01-04T07:09:04;11.73;;;9.15;;
56401;SDS011;42299;35.160;26.100;2023-01-04T07:10:27;12.75;;;8.77;;
56401;SDS011;42299;35.160;26.100;2023-01-04T07:11:50;10.20;;;7.85;;
56401;SDS011;42299;35.160;26.100;2023-01-04T07:13:12;12.48;;;8.40;;
56401;SDS011;42299;35.160;26.100;2023-01-04T07:14:34;11.82;;;8.52;;
56401;SDS011;42299;35.160;26.100;2023-01-04T07:15:57;12.57;;;9.13;;
56401;SDS011;42299;35.160;26.100;2023-01-04T07:17:20;14.15;;;9.10;;
56401;SDS011;42299;35.160;26.100;2023-01-04T07:18:42;12.82;;;9.00;;
56401;SDS011;42299;35.160;26.100;2023-01-04T07:20:05;11.52;;;8.45;;
56401;SDS011;42299;35.160;26.100;2023-01-04T07:21:28;14.73;;;9.27;;
56401;SDS011;42299;35.160;26.100;2023-01-04T07:22:50;12.63;;;8.50;;
56401;SDS011;42299;35.160;26.100;2023-01-04T07:25:35;16.90;;;11.43;;
56401;SDS011;42299;35.160;26.100;2023-01-04T07:26:58;15.77;;;11.35;;
56401;SDS011;42299;35.160;26.100;2023-01-04T07:28:21;20.23;;;14.02;;
56401;SDS011;42299;35.160;26.100;2023-01-04T07:30:00;10.48;;;6.97;;
56401;SDS011;42299;35.160;26.100;2023-01-04T07:31:23;9.57;;;6.75;;
56401;SDS011;42299;35.160;26.100;2023-01-04T07:32:45;11.55;;;7.00;;
56401;SDS011;42299;35.160;26.100;2023-01-04T07:34:07;11.65;;;8.60;;
56401;SDS011;42299;35.160;26.100;2023-01-04T07:35:30;12.75;;;8.52;;
56401;SDS011;42299;35.160;26.100;2023-01-04T07:36:53;8.95;;;6.80;;
56401;SDS011;42299;35.160;26.100;2023-01-04T07:38:16;9.00;;;6.47;;
56401;SDS011;42299;35.160;26.100;2023-01-04T07:39:39;10.27;;;7.25;;
56401;SDS011;42299;35.160;26.100;2023-01-04T07:41:03;10.40;;;6.05;;
56401;SDS011;42299;35.160;26.100;2023-01-04T07:42:26;8.30;;;5.70;;
56401;SDS011;42299;35.160;26.100;2023-01-04T07:43:49;9.50;;;6.13;;
56401;SDS011;42299;35.160;26.100;2023-01-04T07:45:11;9.20;;;6.30;;
56401;SDS011;42299;35.160;26.100;2023-01-04T07:46:34;11.82;;;8.90;;
56401;SDS011;42299;35.160;26.100;2023-01-04T07:47:57;9.98;;;6.40;;
56401;SDS011;42299;35.160;26.100;2023-01-04T07:49:19;10.63;;;8.93;;
56401;SDS011;42299;35.160;26.100;2023-01-04T07:50:43;11.95;;;7.65;;
56401;SDS011;42299;35.160;26.100;2023-01-04T07:52:06;14.32;;;9.73;;
56401;SDS011;42299;35.160;26.100;2023-01-04T07:53:28;13.38;;;8.73;;
56401;SDS011;42299;35.160;26.100;2023-01-04T07:54:54;11.15;;;7.50;;
56401;SDS011;42299;35.160;26.100;2023-01-04T07:56:16;10.57;;;6.68;;
56401;SDS011;42299;35.160;26.100;2023-01-04T07:57:39;8.75;;;5.53;;
56401;SDS011;42299;35.160;26.100;2023-01-04T07:59:01;20.17;;;5.10;;
56401;SDS011;42299;35.160;26.100;2023-01-04T08:00:25;7.55;;;5.00;;
56401;SDS011;42299;35.160;26.100;2023-01-04T08:01:48;7.57;;;5.10;;
56401;SDS011;42299;35.160;26.100;2023-01-04T08:03:11;7.32;;;4.90;;
56401;SDS011;42299;35.160;26.100;2023-01-04T08:04:33;9.60;;;5.60;;
56401;SDS011;42299;35.160;26.100;2023-01-04T08:05:55;8.07;;;4.80;;
56401;SDS011;42299;35.160;26.100;2023-01-04T08:07:17;6.40;;;4.07;;
56401;SDS011;42299;35.160;26.100;2023-01-04T08:08:40;6.82;;;4.25;;
56401;SDS011;42299;35.160;26.100;2023-01-04T08:10:05;8.27;;;4.80;;
56401;SDS011;42299;35.160;26.100;2023-01-04T08:11:28;7.60;;;4.47;;
56401;SDS011;42299;35.160;26.100;2023-01-04T08:12:51;6.10;;;3.88;;
56401;SDS011;42299;35.160;26.100;2023-01-04T08:14:13;9.13;;;4.32;;
56401;SDS011;42299;35.160;26.100;2023-01-04T08:15:36;8.32;;;5.00;;
56401;SDS011;42299;35.160;26.100;2023-01-04T08:16:58;6.00;;;3.28;;
56401;SDS011;42299;35.160;26.100;2023-01-04T08:18:20;8.75;;;4.10;;
56401;SDS011;42299;35.160;26.100;2023-01-04T08:19:43;7.63;;;4.28;;
56401;SDS011;42299;35.160;26.100;2023-01-04T08:21:06;6.50;;;3.72;;
56401;SDS011;42299;35.160;26.100;2023-01-04T08:22:29;6.93;;;3.85;;